createdAt,value
2019-02-08T00:00:19.795Z,938
2019-02-08T00:01:19.814Z,938
2019-02-08T00:02:19.771Z,938
2019-02-08T00:03:19.719Z,938.1
2019-02-08T00:04:20.071Z,938.1
2019-02-08T00:05:20.000Z,938.2
2019-02-08T00:06:19.908Z,936.9
2019-02-08T00:07:19.838Z,938
2019-02-08T00:08:19.833Z,938.1
2019-02-08T00:09:21.121Z,938.2
2019-02-08T00:10:21.326Z,938.1
2019-02-08T00:11:21.248Z,938.1
2019-02-08T00:12:21.172Z,938
2019-02-08T00:13:21.168Z,938
2019-02-08T00:14:21.564Z,938.1
2019-02-08T00:15:21.516Z,938.2
2019-02-08T00:16:21.512Z,938
2019-02-08T00:17:21.518Z,938.2
2019-02-08T00:18:21.448Z,938.2
2019-02-08T00:19:21.358Z,938.2
2019-02-08T00:20:21.301Z,938.2
2019-02-08T00:21:21.332Z,938
2019-02-08T00:22:21.246Z,938.2
2019-02-08T00:23:28.258Z,938.1
2019-02-08T00:24:28.682Z,938.2
2019-02-08T00:25:30.215Z,938.2
2019-02-08T00:26:30.477Z,938.3
2019-02-08T00:27:30.410Z,938.3
2019-02-08T00:28:30.345Z,938.2
2019-02-08T00:29:30.261Z,938.3
2019-02-08T00:30:30.342Z,938.3
2019-02-08T00:31:30.319Z,938.3
2019-02-08T00:32:30.265Z,938.2
2019-02-08T00:33:30.222Z,937.6
2019-02-08T00:34:30.596Z,938.3
2019-02-08T00:35:30.543Z,938.3
2019-02-08T00:36:30.479Z,938.2
2019-02-08T00:37:30.394Z,938.3
2019-02-08T00:38:30.330Z,938.3
2019-02-08T00:39:30.259Z,938.1
2019-02-08T00:40:31.616Z,938.3
2019-02-08T00:41:31.852Z,938.3
2019-02-08T00:42:31.784Z,938.3
2019-02-08T00:43:31.700Z,938.3
2019-02-08T00:44:32.114Z,938.2
2019-02-08T00:45:32.050Z,938.2
2019-02-08T00:46:31.963Z,938.2
2019-02-08T00:47:31.875Z,938.2
2019-02-08T00:48:33.263Z,938.3
2019-02-08T00:49:33.544Z,938.2
2019-02-08T00:50:33.481Z,938.2
2019-02-08T00:51:33.411Z,938.1
2019-02-08T00:52:33.336Z,938.3
2019-02-08T00:53:34.501Z,938.2
2019-02-08T00:54:34.980Z,938.1
2019-02-08T00:55:34.929Z,938.2
2019-02-08T00:56:34.847Z,938.2
2019-02-08T00:57:34.762Z,938.2
2019-02-08T00:58:34.726Z,938.3
2019-02-08T00:59:34.657Z,938.3
2019-02-08T01:00:34.593Z,938.1
2019-02-08T01:01:34.335Z,938.2
2019-02-08T01:02:34.068Z,938.3
2019-02-08T01:03:34.825Z,938.1
2019-02-08T01:04:35.879Z,938.2
2019-02-08T01:05:35.783Z,938.2
2019-02-08T01:06:35.717Z,938.3
2019-02-08T01:07:35.631Z,938.3
2019-02-08T01:08:35.564Z,938.2
2019-02-08T01:09:35.499Z,938.3
2019-02-08T01:10:35.440Z,938.3
2019-02-08T01:11:35.345Z,938.3
2019-02-08T01:12:35.259Z,938.3
2019-02-08T01:13:35.169Z,938.4
2019-02-08T01:14:35.569Z,938.3
2019-02-08T01:15:35.526Z,937
2019-02-08T01:16:35.463Z,938.4
2019-02-08T01:17:35.373Z,938.5
2019-02-08T01:18:36.887Z,938.4
2019-02-08T01:19:37.115Z,938.4
2019-02-08T01:20:37.080Z,938.2
2019-02-08T01:21:36.985Z,938.4
2019-02-08T01:22:36.897Z,938.4
2019-02-08T01:23:42.223Z,938.3
2019-02-08T01:24:42.563Z,938.5
2019-02-08T01:25:42.473Z,938.5
2019-02-08T01:26:42.356Z,938.4
2019-02-08T01:27:42.252Z,938.3
2019-02-08T01:28:42.139Z,938.5
2019-02-08T01:29:42.025Z,938.4
2019-02-08T01:30:41.894Z,938.4
2019-02-08T01:31:41.792Z,938.4
2019-02-08T01:32:41.731Z,938.4
2019-02-08T01:33:41.629Z,938.3
2019-02-08T01:34:41.981Z,938.2
2019-02-08T01:35:41.861Z,938.3
2019-02-08T01:36:41.749Z,938.4
2019-02-08T01:37:41.633Z,938.3
2019-02-08T01:38:41.569Z,938.3
2019-02-08T01:39:41.451Z,938.3
2019-02-08T01:40:41.343Z,938.3
2019-02-08T01:41:41.259Z,938.3
2019-02-08T01:42:41.133Z,937.7
2019-02-08T01:43:41.011Z,938.4
2019-02-08T01:44:41.340Z,938.2
2019-02-08T01:45:41.242Z,938.2
2019-02-08T01:46:41.147Z,938.4
2019-02-08T01:47:41.021Z,938.4
2019-02-08T01:48:40.915Z,938.5
2019-02-08T01:49:40.816Z,938.4
2019-02-08T01:50:40.714Z,938.5
2019-02-08T01:51:40.584Z,938.5
2019-02-08T01:52:40.495Z,938.4
2019-02-08T01:53:40.383Z,938.5
2019-02-08T01:54:40.706Z,938.5
2019-02-08T01:55:40.596Z,938.3
2019-02-08T01:56:40.488Z,938.5
2019-02-08T01:57:40.391Z,938.5
2019-02-08T01:58:40.271Z,938.5
2019-02-08T01:59:40.187Z,938.5
2019-02-08T02:00:40.067Z,938.4
2019-02-08T02:01:39.947Z,938.5
2019-02-08T02:02:39.855Z,938.4
2019-02-08T02:03:39.737Z,937
2019-02-08T02:04:40.033Z,938.5
2019-02-08T02:05:39.922Z,938.5
2019-02-08T02:06:39.791Z,938.5
2019-02-08T02:07:39.673Z,938.5
2019-02-08T02:08:39.576Z,938.5
2019-02-08T02:09:39.497Z,938.5
2019-02-08T02:10:39.380Z,938.4
2019-02-08T02:11:39.253Z,938.5
2019-02-08T02:12:39.151Z,938.5
2019-02-08T02:13:39.050Z,938.5
2019-02-08T02:14:39.351Z,938.5
2019-02-08T02:15:39.242Z,938.5
2019-02-08T02:16:39.136Z,938.4
2019-02-08T02:17:39.014Z,938.5
2019-02-08T02:18:38.945Z,937
2019-02-08T02:19:38.841Z,938.5
2019-02-08T02:20:38.757Z,938.5
2019-02-08T02:21:38.652Z,938.5
2019-02-08T02:22:38.528Z,938.3
2019-02-08T02:23:38.434Z,938.3
2019-02-08T02:24:38.758Z,938.5
2019-02-08T02:25:38.636Z,938.4
2019-02-08T02:26:38.526Z,938.6
2019-02-08T02:27:38.396Z,938.6
2019-02-08T02:28:38.292Z,938.6
2019-02-08T02:29:38.194Z,938.6
2019-02-08T02:30:38.118Z,938.7
2019-02-08T02:31:38.024Z,938.7
2019-02-08T02:32:37.926Z,938.7
2019-02-08T02:33:37.850Z,938.6
2019-02-08T02:34:38.256Z,938.7
2019-02-08T02:35:38.252Z,938.7
2019-02-08T02:36:38.141Z,938.7
2019-02-08T02:37:38.029Z,938.7
2019-02-08T02:38:37.929Z,938.6
2019-02-08T02:39:37.814Z,938.6
2019-02-08T02:40:37.730Z,938.5
2019-02-08T02:41:37.650Z,938.6
2019-02-08T02:42:37.561Z,938.7
2019-02-08T02:43:37.468Z,938.7
2019-02-08T02:44:37.786Z,938.7
2019-02-08T02:45:37.729Z,938.6
2019-02-08T02:46:37.680Z,938.7
2019-02-08T02:47:37.585Z,938.7
2019-02-08T02:48:37.502Z,938.6
2019-02-08T02:49:37.402Z,938.6
2019-02-08T02:50:37.342Z,938.6
2019-02-08T02:51:37.234Z,938.6
2019-02-08T02:52:37.201Z,938.6
2019-02-08T02:53:37.113Z,938.7
2019-02-08T02:54:37.428Z,938.7
2019-02-08T02:55:37.306Z,938.5
2019-02-08T02:56:37.208Z,938.5
2019-02-08T02:57:37.082Z,938.6
2019-02-08T02:58:36.982Z,938.7
2019-02-08T02:59:36.890Z,938.7
2019-02-08T03:00:36.778Z,938.7
2019-02-08T03:01:36.678Z,938.7
2019-02-08T03:02:36.542Z,938.7
2019-02-08T03:03:36.493Z,938.7
2019-02-08T03:04:36.828Z,938.7
2019-02-08T03:05:36.724Z,938.8
2019-02-08T03:06:36.658Z,938.5
2019-02-08T03:07:36.542Z,938.8
2019-02-08T03:08:36.438Z,938.7
2019-02-08T03:09:36.326Z,938.7
2019-02-08T03:10:36.215Z,938.7
2019-02-08T03:11:36.128Z,938.7
2019-02-08T03:12:36.072Z,938.7
2019-02-08T03:13:35.994Z,938.5
2019-02-08T03:14:36.316Z,938.7
2019-02-08T03:15:36.230Z,937.9
2019-02-08T03:16:36.132Z,937.8
2019-02-08T03:17:36.036Z,938.6
2019-02-08T03:18:35.762Z,938.7
2019-02-08T03:19:35.492Z,938.7
2019-02-08T03:20:35.242Z,938.6
2019-02-08T03:21:34.968Z,938.7
2019-02-08T03:22:34.852Z,938.7
2019-02-08T03:23:34.751Z,938.6
2019-02-08T03:24:43.324Z,938.7
2019-02-08T03:25:43.198Z,938.7
2019-02-08T03:26:43.076Z,938.7
2019-02-08T03:27:42.809Z,938.7
2019-02-08T03:28:42.724Z,938.7
2019-02-08T03:29:42.617Z,938.7
2019-02-08T03:30:42.615Z,938.7
2019-02-08T03:31:42.724Z,938.8
2019-02-08T03:32:42.667Z,938.6
2019-02-08T03:33:42.618Z,938.7
2019-02-08T03:34:42.929Z,938.8
2019-02-08T03:35:42.820Z,938.8
2019-02-08T03:36:42.704Z,938.7
2019-02-08T03:37:42.582Z,938.7
2019-02-08T03:38:42.488Z,938.8
2019-02-08T03:39:42.384Z,938.8
2019-02-08T03:40:42.289Z,938.7
2019-02-08T03:41:42.192Z,938.7
2019-02-08T03:42:42.081Z,938.7
2019-02-08T03:43:41.991Z,938.7
2019-02-08T03:44:42.363Z,938.7
2019-02-08T03:45:42.294Z,938.7
2019-02-08T03:46:42.193Z,938.7
2019-02-08T03:47:42.112Z,938.7
2019-02-08T03:48:42.016Z,938.7
2019-02-08T03:49:41.913Z,938.7
2019-02-08T03:50:41.812Z,938.7
2019-02-08T03:51:41.727Z,938.7
2019-02-08T03:52:41.644Z,938.8
2019-02-08T03:53:41.552Z,938.7
2019-02-08T03:54:41.869Z,938.7
2019-02-08T03:55:41.759Z,938.6
2019-02-08T03:56:41.713Z,938.5
2019-02-08T03:57:41.617Z,938.6
2019-02-08T03:58:41.551Z,938.7
2019-02-08T03:59:41.444Z,938.6
2019-02-08T04:00:41.363Z,938.6
2019-02-08T04:01:41.234Z,938.5
2019-02-08T04:02:41.148Z,937.6
2019-02-08T04:03:41.072Z,938.7
2019-02-08T04:04:41.402Z,938.6
2019-02-08T04:05:41.285Z,938.7
2019-02-08T04:06:41.189Z,937.9
2019-02-08T04:07:41.096Z,938.7
2019-02-08T04:08:41.004Z,938.6
2019-02-08T04:09:40.942Z,938.7
2019-02-08T04:10:40.674Z,938.7
2019-02-08T04:11:40.579Z,938.6
2019-02-08T04:12:40.471Z,938.7
2019-02-08T04:13:40.373Z,938.8
2019-02-08T04:14:40.699Z,938.6
2019-02-08T04:15:40.588Z,938.8
2019-02-08T04:16:40.470Z,938.8
2019-02-08T04:17:40.372Z,938.8
2019-02-08T04:18:40.381Z,938.7
2019-02-08T04:19:40.296Z,938.8
2019-02-08T04:20:40.239Z,938.2
2019-02-08T04:21:40.119Z,938.9
2019-02-08T04:22:40.025Z,938.8
2019-02-08T04:23:39.930Z,938.9
2019-02-08T04:24:40.207Z,938.9
2019-02-08T04:25:40.084Z,938.9
2019-02-08T04:26:39.963Z,938.6
2019-02-08T04:27:39.837Z,938.8
2019-02-08T04:28:39.737Z,938.8
2019-02-08T04:29:39.644Z,938.8
2019-02-08T04:30:39.543Z,938.8
2019-02-08T04:31:39.425Z,938.8
2019-02-08T04:32:39.332Z,938.8
2019-02-08T04:33:39.237Z,938.7
2019-02-08T04:34:39.603Z,938.7
2019-02-08T04:35:39.515Z,938.5
2019-02-08T04:36:39.394Z,938.7
2019-02-08T04:37:39.277Z,938.7
2019-02-08T04:38:39.249Z,938.7
2019-02-08T04:39:38.972Z,938.7
2019-02-08T04:40:38.855Z,938.7
2019-02-08T04:41:38.585Z,938.7
2019-02-08T04:42:38.471Z,938.7
2019-02-08T04:43:38.359Z,938.8
2019-02-08T04:44:38.709Z,938.8
2019-02-08T04:45:38.594Z,938.7
2019-02-08T04:46:38.488Z,938.8
2019-02-08T04:47:38.372Z,938.8
2019-02-08T04:48:38.292Z,938.7
2019-02-08T04:49:38.229Z,938.7
2019-02-08T04:50:38.127Z,938.8
2019-02-08T04:51:38.057Z,938.7
2019-02-08T04:52:37.969Z,938.7
2019-02-08T04:53:37.871Z,938.7
2019-02-08T04:54:39.431Z,938.5
2019-02-08T04:55:39.375Z,938.6
2019-02-08T04:56:39.286Z,938.6
2019-02-08T04:57:40.459Z,938.7
2019-02-08T04:58:40.331Z,938.7
2019-02-08T04:59:40.255Z,938.6
2019-02-08T05:00:40.144Z,938.7
2019-02-08T05:01:40.033Z,938.7
2019-02-08T05:02:39.923Z,938.7
2019-02-08T05:03:39.825Z,938.8
2019-02-08T05:04:40.132Z,938.8
2019-02-08T05:05:40.031Z,937.7
2019-02-08T05:06:39.932Z,938.7
2019-02-08T05:07:39.827Z,938.6
2019-02-08T05:08:39.770Z,938.7
2019-02-08T05:09:39.647Z,937.6
2019-02-08T05:10:39.579Z,938.7
2019-02-08T05:11:39.463Z,938.6
2019-02-08T05:12:39.327Z,938.7
2019-02-08T05:13:39.337Z,938.7
2019-02-08T05:14:39.613Z,938.7
2019-02-08T05:15:39.517Z,938.7
2019-02-08T05:16:39.420Z,938.7
2019-02-08T05:17:39.304Z,938.7
2019-02-08T05:18:39.195Z,937
2019-02-08T05:19:39.073Z,938.7
2019-02-08T05:20:38.988Z,938.5
2019-02-08T05:21:38.883Z,938.7
2019-02-08T05:22:38.762Z,938.6
2019-02-08T05:23:38.678Z,938.6
2019-02-08T05:24:46.882Z,938.6
2019-02-08T05:25:46.793Z,938.6
2019-02-08T05:26:46.668Z,938.6
2019-02-08T05:27:46.545Z,938.6
2019-02-08T05:28:46.422Z,938.5
2019-02-08T05:29:46.323Z,938.6
2019-02-08T05:30:46.206Z,938.6
2019-02-08T05:31:46.116Z,938.7
2019-02-08T05:32:45.999Z,938.7
2019-02-08T05:33:45.871Z,938.7
2019-02-08T05:34:46.225Z,938.7
2019-02-08T05:35:46.130Z,938.7
2019-02-08T05:36:46.023Z,938.6
2019-02-08T05:37:45.903Z,938.6
2019-02-08T05:38:45.776Z,938.5
2019-02-08T05:39:45.750Z,938.7
2019-02-08T05:40:45.668Z,938.7
2019-02-08T05:41:45.582Z,938.7
2019-02-08T05:42:45.510Z,938.7
2019-02-08T05:43:45.391Z,938.6
2019-02-08T05:44:45.696Z,938.6
2019-02-08T05:45:45.595Z,938.7
2019-02-08T05:46:45.543Z,938.7
2019-02-08T05:47:45.327Z,938.5
2019-02-08T05:48:45.052Z,938.8
2019-02-08T05:49:44.788Z,938.7
2019-02-08T05:50:44.517Z,938.6
2019-02-08T05:51:44.244Z,938.8
2019-02-08T05:52:43.961Z,938.7
2019-02-08T05:53:43.706Z,938.7
2019-02-08T05:54:44.002Z,938.7
2019-02-08T05:55:43.902Z,938.8
2019-02-08T05:56:43.800Z,938.8
2019-02-08T05:57:43.680Z,938.8
2019-02-08T05:58:43.582Z,938.8
2019-02-08T05:59:43.459Z,938.7
2019-02-08T06:00:43.376Z,938.7
2019-02-08T06:01:43.282Z,938.8
2019-02-08T06:02:43.520Z,938.8
2019-02-08T06:03:43.452Z,938.7
2019-02-08T06:04:44.427Z,938.5
2019-02-08T06:05:44.326Z,937.3
2019-02-08T06:06:44.198Z,938.8
2019-02-08T06:07:44.124Z,938.8
2019-02-08T06:08:44.041Z,938.6
2019-02-08T06:09:43.924Z,938.6
2019-02-08T06:10:43.820Z,938.6
2019-02-08T06:11:43.707Z,938.8
2019-02-08T06:12:43.609Z,938.8
2019-02-08T06:13:43.526Z,938.7
2019-02-08T06:14:43.843Z,938.8
2019-02-08T06:15:43.750Z,938.8
2019-02-08T06:16:43.672Z,938.6
2019-02-08T06:17:43.565Z,938.7
2019-02-08T06:18:43.562Z,938.8
2019-02-08T06:19:43.453Z,938.8
2019-02-08T06:20:43.350Z,938.8
2019-02-08T06:21:43.262Z,938.8
2019-02-08T06:22:43.195Z,938.6
2019-02-08T06:23:43.132Z,938.7
2019-02-08T06:24:43.489Z,938.8
2019-02-08T06:25:43.376Z,938.7
2019-02-08T06:26:43.280Z,938.8
2019-02-08T06:27:43.186Z,938.8
2019-02-08T06:28:43.067Z,938.8
2019-02-08T06:29:42.979Z,938.8
2019-02-08T06:30:42.890Z,938.9
2019-02-08T06:31:42.770Z,938.8
2019-02-08T06:32:42.660Z,938.9
2019-02-08T06:33:42.538Z,938.8
2019-02-08T06:34:42.887Z,938.8
2019-02-08T06:35:42.775Z,938.9
2019-02-08T06:36:42.648Z,938.9
2019-02-08T06:37:45.314Z,938.9
2019-02-08T06:38:45.184Z,938.8
2019-02-08T06:39:44.928Z,938.9
2019-02-08T06:40:44.663Z,938.9
2019-02-08T06:41:44.404Z,938.9
2019-02-08T06:42:44.145Z,938.9
2019-02-08T06:43:43.881Z,938.9
2019-02-08T06:44:44.228Z,938.8
2019-02-08T06:45:44.119Z,938.8
2019-02-08T06:46:44.079Z,938.7
2019-02-08T06:47:43.958Z,938.8
2019-02-08T06:48:43.836Z,938.8
2019-02-08T06:49:43.752Z,938.9
2019-02-08T06:50:43.624Z,938.9
2019-02-08T06:51:43.500Z,937.5
2019-02-08T06:52:43.366Z,938.9
2019-02-08T06:53:43.248Z,938.9
2019-02-08T06:54:43.600Z,938.8
2019-02-08T06:55:43.480Z,938.8
2019-02-08T06:56:43.352Z,938.8
2019-02-08T06:57:43.235Z,937.5
2019-02-08T06:58:43.125Z,938.7
2019-02-08T06:59:43.022Z,938.8
2019-02-08T07:00:43.006Z,938.8
2019-02-08T07:01:42.892Z,938.9
2019-02-08T07:02:42.765Z,938.8
2019-02-08T07:03:42.656Z,937.1
2019-02-08T07:04:42.989Z,938.8
2019-02-08T07:05:42.879Z,938.8
2019-02-08T07:06:42.783Z,938.8
2019-02-08T07:07:42.649Z,938.8
2019-02-08T07:08:42.524Z,938.8
2019-02-08T07:09:42.434Z,938.8
2019-02-08T07:10:42.461Z,938.7
2019-02-08T07:11:42.358Z,938.8
2019-02-08T07:12:42.234Z,938.8
2019-02-08T07:13:42.135Z,938.7
2019-02-08T07:14:42.485Z,938.9
2019-02-08T07:15:42.394Z,938.8
2019-02-08T07:16:42.269Z,938.8
2019-02-08T07:17:42.186Z,938.8
2019-02-08T07:18:42.073Z,938.7
2019-02-08T07:19:41.995Z,938.9
2019-02-08T07:20:41.877Z,938.7
2019-02-08T07:21:41.752Z,938.9
2019-02-08T07:22:41.643Z,938.6
2019-02-08T07:23:41.533Z,938.8
2019-02-08T07:24:41.936Z,938.8
2019-02-08T07:25:41.856Z,938.8
2019-02-08T07:26:41.756Z,938.8
2019-02-08T07:27:41.635Z,938.7
2019-02-08T07:28:41.539Z,938.8
2019-02-08T07:29:41.419Z,938.7
2019-02-08T07:30:41.374Z,938.8
2019-02-08T07:31:41.254Z,938.7
2019-02-08T07:32:41.147Z,938.7
2019-02-08T07:33:41.056Z,938.7
2019-02-08T07:34:41.382Z,938.7
2019-02-08T07:35:41.273Z,938.8
2019-02-08T07:36:41.185Z,938.7
2019-02-08T07:37:41.069Z,938.7
2019-02-08T07:38:40.959Z,938.8
2019-02-08T07:39:40.839Z,938.7
2019-02-08T07:40:40.739Z,938.6
2019-02-08T07:41:40.644Z,938.7
2019-02-08T07:42:40.525Z,938.8
2019-02-08T07:43:40.386Z,938.8
2019-02-08T07:44:40.695Z,938.8
2019-02-08T07:45:40.606Z,938.8
2019-02-08T07:46:40.498Z,938.8
2019-02-08T07:47:40.389Z,938.8
2019-02-08T07:48:40.274Z,938.8
2019-02-08T07:49:40.171Z,938.8
2019-02-08T07:50:40.080Z,938.8
2019-02-08T07:51:39.970Z,938.9
2019-02-08T07:52:39.863Z,938.8
2019-02-08T07:53:39.747Z,938.8
2019-02-08T07:54:40.070Z,938.8
2019-02-08T07:55:39.957Z,938.8
2019-02-08T07:56:39.873Z,938.8
2019-02-08T07:57:39.769Z,938.9
2019-02-08T07:58:39.669Z,938.8
2019-02-08T07:59:39.569Z,938.8
2019-02-08T08:00:39.454Z,938.7
2019-02-08T08:01:39.370Z,938.7
2019-02-08T08:02:39.271Z,938.8
2019-02-08T08:03:39.141Z,938.8
2019-02-08T08:04:39.467Z,938.7
2019-02-08T08:05:39.349Z,938.8
2019-02-08T08:06:39.257Z,938.8
2019-02-08T08:07:39.139Z,938.8
2019-02-08T08:08:39.075Z,938.8
2019-02-08T08:09:38.989Z,938.7
2019-02-08T08:10:38.868Z,938.8
2019-02-08T08:11:38.782Z,938.8
2019-02-08T08:12:38.669Z,938.9
2019-02-08T08:13:38.550Z,938.8
2019-02-08T08:14:38.863Z,938.8
2019-02-08T08:15:38.743Z,938.8
2019-02-08T08:16:38.645Z,938.7
2019-02-08T08:17:38.540Z,938.7
2019-02-08T08:18:38.441Z,938.7
2019-02-08T08:19:38.351Z,938.7
2019-02-08T08:20:38.234Z,938.8
2019-02-08T08:21:38.111Z,938.9
2019-02-08T08:22:38.045Z,938.8
2019-02-08T08:23:37.937Z,938.9
2019-02-08T08:24:38.257Z,938.8
2019-02-08T08:25:38.154Z,938.9
2019-02-08T08:26:38.058Z,938.9
2019-02-08T08:27:37.954Z,938.9
2019-02-08T08:28:37.858Z,938.9
2019-02-08T08:29:37.748Z,938.8
2019-02-08T08:30:37.642Z,938.8
2019-02-08T08:31:37.586Z,938.8
2019-02-08T08:32:37.706Z,938.7
2019-02-08T08:33:37.620Z,938.7
2019-02-08T08:34:37.981Z,938.9
2019-02-08T08:35:37.873Z,938.8
2019-02-08T08:36:37.777Z,938.8
2019-02-08T08:37:37.655Z,938.8
2019-02-08T08:38:37.545Z,938.7
2019-02-08T08:39:37.448Z,938.7
2019-02-08T08:40:37.350Z,938.8
2019-02-08T08:41:37.262Z,938.7
2019-02-08T08:42:37.162Z,938.7
2019-02-08T08:43:37.055Z,938.8
2019-02-08T08:44:37.493Z,938.8
2019-02-08T08:45:37.393Z,938.7
2019-02-08T08:46:37.260Z,938.8
2019-02-08T08:47:37.152Z,938.8
2019-02-08T08:48:37.040Z,938.9
2019-02-08T08:49:36.932Z,938.9
2019-02-08T08:50:36.835Z,938.9
2019-02-08T08:51:36.735Z,938.9
2019-02-08T08:52:36.621Z,938.7
2019-02-08T08:53:36.557Z,938.8
2019-02-08T08:54:36.877Z,938.9
2019-02-08T08:55:43.226Z,938.8
2019-02-08T08:56:43.122Z,938.8
2019-02-08T08:57:43.024Z,938.8
2019-02-08T08:58:42.905Z,938.7
2019-02-08T08:59:42.806Z,938.7
2019-02-08T09:00:42.719Z,938.8
2019-02-08T09:01:42.616Z,938.6
2019-02-08T09:02:42.509Z,938.7
2019-02-08T09:03:42.401Z,938.8
2019-02-08T09:04:42.938Z,938.7
2019-02-08T09:05:42.854Z,938.7
2019-02-08T09:06:42.791Z,938.7
2019-02-08T09:07:42.753Z,938.6
2019-02-08T09:08:42.656Z,938.6
2019-02-08T09:09:42.550Z,938.7
2019-02-08T09:10:42.460Z,938.5
2019-02-08T09:11:42.386Z,938.6
2019-02-08T09:12:42.294Z,937.3
2019-02-08T09:13:42.193Z,938.5
2019-02-08T09:14:42.520Z,937.2
2019-02-08T09:15:42.407Z,938.5
2019-02-08T09:16:42.328Z,938.6
2019-02-08T09:17:42.235Z,938.5
2019-02-08T09:18:42.150Z,938.5
2019-02-08T09:19:42.033Z,938.5
2019-02-08T09:20:41.934Z,938.6
2019-02-08T09:21:41.830Z,938.4
2019-02-08T09:22:41.784Z,938.6
2019-02-08T09:23:41.702Z,938.6
2019-02-08T09:24:42.030Z,938.6
2019-02-08T09:25:49.564Z,938.5
2019-02-08T09:26:49.674Z,937.7
2019-02-08T09:27:49.592Z,938.5
2019-02-08T09:28:49.480Z,938.5
2019-02-08T09:29:49.360Z,938.3
2019-02-08T09:30:49.238Z,938.5
2019-02-08T09:31:49.124Z,938.5
2019-02-08T09:32:49.017Z,938.4
2019-02-08T09:33:48.919Z,938.4
2019-02-08T09:34:49.260Z,938.5
2019-02-08T09:35:49.180Z,938.5
2019-02-08T09:36:49.070Z,938.5
2019-02-08T09:37:48.966Z,938.5
2019-02-08T09:38:48.892Z,938.5
2019-02-08T09:39:48.788Z,938.5
2019-02-08T09:40:48.662Z,938.4
2019-02-08T09:41:48.561Z,938.4
2019-02-08T09:42:48.469Z,938.5
2019-02-08T09:43:48.350Z,938.5
2019-02-08T09:44:48.676Z,938.4
2019-02-08T09:45:48.588Z,938.4
2019-02-08T09:46:48.480Z,938.5
2019-02-08T09:47:48.346Z,938.3
2019-02-08T09:48:48.245Z,938.5
2019-02-08T09:49:48.146Z,938.4
2019-02-08T09:50:48.029Z,938.4
2019-02-08T09:51:48.414Z,938.5
2019-02-08T09:52:48.318Z,938.4
2019-02-08T09:53:48.204Z,938.4
2019-02-08T09:54:48.595Z,938.3
2019-02-08T09:55:48.486Z,938.4
2019-02-08T09:56:48.376Z,938.4
2019-02-08T09:57:48.264Z,938.4
2019-02-08T09:58:48.144Z,938.3
2019-02-08T09:59:48.047Z,938.4
2019-02-08T10:00:47.928Z,938.2
2019-02-08T10:01:47.841Z,938.2
2019-02-08T10:02:47.778Z,938.3
2019-02-08T10:03:47.669Z,938.4
2019-02-08T10:04:48.035Z,938.3
2019-02-08T10:05:47.928Z,938.4
2019-02-08T10:06:47.813Z,938.3
2019-02-08T10:07:47.714Z,938.4
2019-02-08T10:08:47.594Z,938.5
2019-02-08T10:09:47.479Z,938.3
2019-02-08T10:10:47.378Z,938.2
2019-02-08T10:11:47.264Z,938.4
2019-02-08T10:12:47.159Z,938.4
2019-02-08T10:13:47.047Z,938.3
2019-02-08T10:14:47.344Z,938.4
2019-02-08T10:15:47.260Z,938.4
2019-02-08T10:16:47.171Z,938.4
2019-02-08T10:17:47.045Z,938.3
2019-02-08T10:18:46.921Z,938.2
2019-02-08T10:19:46.815Z,938.4
2019-02-08T10:20:46.699Z,938.4
2019-02-08T10:21:46.659Z,937.6
2019-02-08T10:22:46.557Z,937.7
2019-02-08T10:23:46.443Z,938.2
2019-02-08T10:24:46.775Z,938.3
2019-02-08T10:25:46.663Z,938.2
2019-02-08T10:26:46.572Z,938.2
2019-02-08T10:27:46.478Z,938.2
2019-02-08T10:28:46.369Z,938.1
2019-02-08T10:29:46.251Z,938.3
2019-02-08T10:30:46.141Z,938.3
2019-02-08T10:31:46.054Z,938.3
2019-02-08T10:32:45.942Z,938.2
2019-02-08T10:33:45.855Z,938.2
2019-02-08T10:34:49.287Z,938.2
2019-02-08T10:35:49.376Z,938.2
2019-02-08T10:36:49.293Z,938
2019-02-08T10:37:49.200Z,938.1
2019-02-08T10:38:49.081Z,938.1
2019-02-08T10:39:48.960Z,938
2019-02-08T10:40:48.851Z,938
2019-02-08T10:41:48.744Z,938
2019-02-08T10:42:48.647Z,938
2019-02-08T10:43:51.729Z,937.9
2019-02-08T10:44:52.863Z,937.9
2019-02-08T10:45:52.772Z,938
2019-02-08T10:46:52.689Z,938
2019-02-08T10:47:52.601Z,937.9
2019-02-08T10:48:52.487Z,937.9
2019-02-08T10:49:52.361Z,938
2019-02-08T10:50:52.293Z,937.9
2019-02-08T10:51:52.173Z,937.8
2019-02-08T10:52:52.094Z,937.9
2019-02-08T10:53:55.144Z,937.9
2019-02-08T10:54:58.133Z,936.5
2019-02-08T10:55:58.010Z,937.9
2019-02-08T10:56:57.900Z,938
2019-02-08T10:57:57.875Z,937.9
2019-02-08T10:58:57.786Z,938
2019-02-08T10:59:57.679Z,937.9
2019-02-08T11:00:57.559Z,937.9
2019-02-08T11:01:57.435Z,938
2019-02-08T11:02:57.321Z,937.9
2019-02-08T11:03:57.224Z,937.9
2019-02-08T11:04:57.524Z,937.8
2019-02-08T11:05:57.417Z,937.9
2019-02-08T11:06:57.310Z,937.8
2019-02-08T11:07:57.232Z,937.8
2019-02-08T11:08:57.201Z,936.4
2019-02-08T11:09:57.071Z,937.8
2019-02-08T11:10:56.965Z,937.8
2019-02-08T11:11:56.870Z,937.8
2019-02-08T11:12:56.763Z,937.8
2019-02-08T11:13:56.669Z,937.8
2019-02-08T11:14:56.973Z,937.8
2019-02-08T11:15:56.849Z,937.8
2019-02-08T11:16:56.747Z,936.5
2019-02-08T11:17:56.617Z,937.7
2019-02-08T11:18:56.542Z,937.6
2019-02-08T11:19:56.437Z,937.7
2019-02-08T11:20:56.334Z,937.7
2019-02-08T11:21:56.263Z,937.5
2019-02-08T11:22:56.160Z,937.6
2019-02-08T11:23:56.035Z,937.7
2019-02-08T11:24:56.359Z,937.8
2019-02-08T11:25:56.253Z,937.6
2019-02-08T11:26:56.165Z,937.6
2019-02-08T11:27:56.049Z,937.6
2019-02-08T11:28:55.927Z,937.7
2019-02-08T11:29:55.831Z,937.6
2019-02-08T11:30:55.715Z,937.6
2019-02-08T11:31:55.610Z,937.5
2019-02-08T11:32:55.508Z,937.4
2019-02-08T11:33:55.395Z,937.6
2019-02-08T11:34:55.732Z,937.5
2019-02-08T11:35:55.615Z,937.5
2019-02-08T11:36:55.503Z,937.5
2019-02-08T11:37:55.398Z,937.6
2019-02-08T11:38:55.360Z,937.5
2019-02-08T11:39:55.294Z,937.5
2019-02-08T11:40:55.183Z,937.5
2019-02-08T11:41:55.103Z,937.5
2019-02-08T11:42:54.982Z,937.5
2019-02-08T11:43:54.876Z,937.4
2019-02-08T11:44:55.179Z,937.3
2019-02-08T11:45:55.070Z,937.4
2019-02-08T11:46:54.967Z,937.4
2019-02-08T11:47:54.975Z,937.4
2019-02-08T11:48:54.909Z,937.4
2019-02-08T11:49:54.815Z,937.2
2019-02-08T11:50:54.713Z,937.3
2019-02-08T11:51:54.591Z,937.4
2019-02-08T11:52:54.481Z,937.4
2019-02-08T11:53:54.372Z,937.4
2019-02-08T11:54:54.686Z,937.4
2019-02-08T11:55:54.574Z,937.4
2019-02-08T11:56:54.519Z,937.4
2019-02-08T11:57:54.399Z,937.4
2019-02-08T11:58:54.285Z,937.4
2019-02-08T11:59:54.167Z,937.4
2019-02-08T12:00:54.078Z,937.3
2019-02-08T12:01:53.967Z,937.2
2019-02-08T12:02:53.841Z,937.3
2019-02-08T12:03:53.728Z,937.2
2019-02-08T12:04:54.063Z,937.3
2019-02-08T12:05:53.933Z,937.2
2019-02-08T12:06:53.846Z,937.3
2019-02-08T12:07:53.740Z,937.2
2019-02-08T12:08:53.650Z,937.2
2019-02-08T12:09:53.550Z,937.2
2019-02-08T12:10:53.416Z,937.1
2019-02-08T12:11:53.333Z,937
2019-02-08T12:12:53.210Z,937.1
2019-02-08T12:13:53.177Z,937.2
2019-02-08T12:14:53.550Z,937.1
2019-02-08T12:15:53.456Z,937
2019-02-08T12:16:53.347Z,936.9
2019-02-08T12:17:53.274Z,935.7
2019-02-08T12:18:53.153Z,936.9
2019-02-08T12:19:53.047Z,937.1
2019-02-08T12:20:52.928Z,937
2019-02-08T12:21:52.792Z,936.5
2019-02-08T12:22:52.696Z,937
2019-02-08T12:23:52.594Z,935.5
2019-02-08T12:24:53.489Z,937
2019-02-08T12:25:53.372Z,937
2019-02-08T12:26:53.253Z,936.9
2019-02-08T12:27:53.164Z,937
2019-02-08T12:28:53.082Z,936.9
2019-02-08T12:29:52.968Z,936.9
2019-02-08T12:30:52.860Z,936.9
2019-02-08T12:31:52.772Z,936.8
2019-02-08T12:32:52.686Z,936.8
2019-02-08T12:33:52.592Z,936.8
2019-02-08T12:34:52.906Z,936.8
2019-02-08T12:35:52.792Z,936.8
2019-02-08T12:36:52.706Z,936.8
2019-02-08T12:37:52.619Z,936.8
2019-02-08T12:38:52.539Z,936.7
2019-02-08T12:39:52.430Z,936.8
2019-02-08T12:40:52.328Z,936.7
2019-02-08T12:41:52.226Z,936.7
2019-02-08T12:42:52.122Z,936.6
2019-02-08T12:43:52.045Z,936.6
2019-02-08T12:44:52.369Z,936.6
2019-02-08T12:45:52.312Z,936.6
2019-02-08T12:46:52.210Z,936.5
2019-02-08T12:47:52.099Z,936.5
2019-02-08T12:48:51.997Z,936.4
2019-02-08T12:49:51.885Z,936.5
2019-02-08T12:50:51.786Z,936.4
2019-02-08T12:51:51.675Z,936.4
2019-02-08T12:52:51.565Z,936.3
2019-02-08T12:53:51.473Z,936.3
2019-02-08T12:54:51.868Z,936.2